Time;durP1;ratioP1;P1;durP2;ratioP2;P2;SDS_P1;SDS_P2;PMS_P1;PMS_P2;Temp;Humidity;BMP_temperature;BMP_pressure;BME280_temperature;BME280_humidity;BME280_pressure;Samples;Min_cycle;Max_cycle;Signal;HPM_P1;HPM_P2
2023/01/04 00:02:20;;;;;;;3.72;3.63;;;;;;;5.84;100.00;101693.56;6084867;23;20048;-72
2023/01/04 00:04:47;;;;;;;4.68;4.28;;;;;;;6.79;100.00;101843.19;6066204;23;20014;-73
2023/01/04 00:07:13;;;;;;;4.10;3.90;;;;;;;6.45;100.00;101779.44;6079679;23;20379;-72
2023/01/04 00:09:40;;;;;;;4.68;4.38;;;;;;;6.82;100.00;101830.97;6059121;23;20028;-72
2023/01/04 00:12:06;;;;;;;4.45;4.15;;;;;;;6.54;100.00;101771.47;6092730;23;20063;-72
2023/01/04 00:14:32;;;;;;;3.65;3.55;;;;;;;6.89;100.00;101814.28;6106068;23;20042;-72
2023/01/04 00:16:59;;;;;;;3.42;3.33;;;;;;;6.92;100.00;101820.31;6084345;23;20303;-73
2023/01/04 00:19:26;;;;;;;10.48;4.20;;;;;;;6.95;100.00;101812.41;6092922;23;20083;-73
2023/01/04 00:21:52;;;;;;;8.40;4.15;;;;;;;6.41;100.00;101716.06;6082811;23;20022;-72
2023/01/04 00:24:19;;;;;;;3.80;3.60;;;;;;;7.00;100.00;101796.69;6109123;23;20017;-73
2023/01/04 00:26:45;;;;;;;4.20;4.00;;;;;;;7.06;100.00;101801.78;6093537;23;20022;-71
2023/01/04 00:29:12;;;;;;;3.92;3.72;;;;;;;7.07;100.00;101800.03;6051392;23;20052;-73
2023/01/04 00:31:39;;;;;;;3.78;3.67;;;;;;;6.38;100.00;101687.44;6047972;23;20033;-73
2023/01/04 00:34:06;;;;;;;3.85;3.72;;;;;;;7.13;100.00;101795.53;6087833;23;20029;-72
2023/01/04 00:36:33;;;;;;;4.00;3.80;;;;;;;7.12;100.00;101788.63;6094993;23;20424;-72
2023/01/04 00:39:06;;;;;;;4.15;3.90;;;;;;;6.56;100.00;101688.84;6100048;23;20037;-71
2023/01/04 00:41:42;;;;;;;4.32;4.13;;;;;;;7.20;100.00;101780.63;6063356;23;20022;-71
2023/01/04 00:44:28;;;;;;;3.90;3.70;;;;;;;6.80;100.00;101700.53;6103618;23;20025;-72
2023/01/04 00:46:55;;;;;;;4.22;4.03;;;;;;;7.25;100.00;101772.69;6026785;23;20601;-71
2023/01/04 00:49:22;;;;;;;3.83;3.63;;;;;;;7.33;100.00;101776.84;6113413;23;20053;-72
2023/01/04 00:51:49;;;;;;;8.55;4.28;;;;;;;7.19;100.00;101753.63;6063289;23;20180;-70
2023/01/04 00:54:16;;;;;;;4.45;4.25;;;;;;;6.30;100.00;101593.75;6104244;23;20022;-71
2023/01/04 00:56:43;;;;;;;4.03;3.83;;;;;;;7.18;100.00;101743.25;6064332;23;20022;-70
2023/01/04 00:59:15;;;;;;;4.00;3.80;;;;;;;6.58;100.00;101646.19;6107650;23;20254;-73
2023/01/04 01:01:44;;;;;;;5.43;4.65;;;;;;;7.36;100.00;101760.28;6099446;23;20201;-71
2023/01/04 01:04:14;;;;;;;5.30;5.05;;;;;;;7.31;100.00;101754.28;6082547;23;20095;-71
2023/01/04 01:06:41;;;;;;;4.25;4.05;;;;;;;6.17;100.00;101572.28;6059540;23;20320;-72
2023/01/04 01:09:08;;;;;;;3.88;3.67;;;;;;;6.95;100.00;101691.53;6105492;23;20017;-71
2023/01/04 01:11:36;;;;;;;4.88;4.03;;;;;;;6.73;100.00;101663.25;6087094;23;20028;-71
2023/01/04 01:14:03;;;;;;;4.10;3.90;;;;;;;7.05;100.00;101698.25;6094797;23;20033;-71
2023/01/04 01:16:30;;;;;;;4.10;3.90;;;;;;;7.29;100.00;101729.97;6058786;23;20483;-70
2023/01/04 01:19:16;;;;;;;4.07;3.83;;;;;;;7.27;100.00;101719.53;6103037;23;20157;-71
2023/01/04 01:21:43;;;;;;;4.00;3.80;;;;;;;7.26;100.00;101709.16;6093262;23;20040;-73
2023/01/04 01:24:17;;;;;;;3.90;3.70;;;;;;;6.83;100.00;101640.44;6106427;23;20081;-72
2023/01/04 01:26:45;;;;;;;4.03;3.80;;;;;;;6.95;100.00;101655.00;6084620;23;20018;-71
2023/01/04 01:29:11;;;;;;;3.72;3.53;;;;;;;7.26;100.00;101698.72;6093381;23;20498;-72
2023/01/04 01:31:40;;;;;;;4.60;4.35;;;;;;;7.22;100.00;101686.59;6088225;23;20017;-72
2023/01/04 01:34:07;;;;;;;3.83;3.70;;;;;;;6.66;100.00;101596.47;6064090;23;20009;-72
2023/01/04 01:36:33;;;;;;;4.20;4.00;;;;;;;6.62;100.00;101593.97;6096668;23;20010;-71
2023/01/04 01:39:00;;;;;;;4.32;4.13;;;;;;;7.23;100.00;101673.50;6057396;23;20029;-71
2023/01/04 01:41:30;;;;;;;4.10;3.90;;;;;;;7.21;100.00;101672.69;6085836;23;20025;-71
2023/01/04 01:44:02;;;;;;;4.25;4.05;;;;;;;7.21;100.00;101671.84;6100858;23;20187;-74
2023/01/04 01:46:49;;;;;;;8.05;4.72;;;;;;;6.82;100.00;101609.19;6072502;23;20628;-71
2023/01/04 01:49:32;;;;;;;4.20;4.00;;;;;;;7.22;100.00;101658.75;6101619;23;20041;-72
2023/01/04 01:52:03;;;;;;;4.10;3.90;;;;;;;7.24;100.00;101661.34;6064271;23;20025;-70
2023/01/04 01:54:36;;;;;;;3.80;3.70;;;;;;;7.25;100.00;101647.38;6081721;23;20463;-71
2023/01/04 01:57:05;;;;;;;4.38;4.18;;;;;;;7.26;100.00;101647.34;6075458;23;20508;-71
2023/01/04 01:59:34;;;;;;;4.00;3.80;;;;;;;7.29;100.00;101651.63;6061634;23;20025;-72
2023/01/04 02:02:01;;;;;;;4.93;4.20;;;;;;;6.91;100.00;101590.72;6099685;23;20016;-71
2023/01/04 02:04:28;;;;;;;5.07;4.60;;;;;;;7.27;100.00;101650.81;6087523;23;20066;-73
2023/01/04 02:06:57;;;;;;;5.65;4.10;;;;;;;7.27;100.00;101653.41;6099819;23;20565;-72
2023/01/04 02:09:24;;;;;;;4.20;4.00;;;;;;;6.32;100.00;101486.84;6089066;23;20033;-72
2023/01/04 02:11:50;;;;;;;4.03;3.83;;;;;;;5.80;100.00;101402.78;6093931;23;20912;-72
2023/01/04 02:14:28;;;;;;;7.00;4.25;;;;;;;6.89;100.00;101574.22;6110043;23;20044;-71
2023/01/04 02:16:55;;;;;;;4.43;4.20;;;;;;;7.33;100.00;101641.06;6065437;23;20024;-71
2023/01/04 02:20:06;;;;;;;4.10;3.90;;;;;;;7.34;100.00;101637.56;6106237;23;20036;-72
2023/01/04 02:23:04;;;;;;;4.20;4.00;;;;;;;7.31;100.00;101639.38;6075606;23;20018;-72
2023/01/04 02:25:43;;;;;;;3.97;3.78;;;;;;;7.32;100.00;101623.69;6062219;23;20227;-72
2023/01/04 02:28:37;;;;;;;4.13;3.92;;;;;;;7.25;100.00;101618.66;6107387;23;20545;-72
2023/01/04 02:31:38;;;;;;;4.13;3.92;;;;;;;7.28;100.00;101621.22;6061855;23;20014;-72
2023/01/04 02:34:44;;;;;;;6.18;3.88;;;;;;;7.29;100.00;101615.06;6106201;23;20021;-73
2023/01/04 02:37:37;;;;;;;3.75;3.63;;;;;;;7.04;100.00;101573.03;6088069;23;20013;-72
2023/01/04 02:40:28;;;;;;;4.10;3.90;;;;;;;7.30;100.00;101601.13;6053109;23;21290;-73
2023/01/04 02:45:55;;;;;;;4.03;3.83;;;;;;;6.87;100.00;101521.22;6085264;23;20083;-71
2023/01/04 02:51:27;;;;;;;3.65;3.55;;;;;;;6.41;100.00;101444.06;6089022;23;20032;-72
2023/01/04 02:53:57;;;;;;;4.13;3.92;;;;;;;6.71;100.00;101490.28;6118092;17;20432;-75
2023/01/04 02:56:38;;;;;;;3.60;3.50;;;;;;;6.92;100.00;101456.75;6111168;23;20033;-76
2023/01/04 02:59:26;;;;;;;3.80;3.70;;;;;;;7.67;100.00;101564.50;6077798;23;20594;-77
2023/01/04 03:08:34;;;;;;;4.60;4.30;;;;;;;7.84;100.00;101571.91;6111566;23;20183;-74
2023/01/04 03:12:30;;;;;;;4.15;3.95;;;;;;;7.70;100.00;101530.47;6081784;23;20084;-76
2023/01/04 03:14:06;;;;;;;4.45;4.20;;;;;;;8.07;100.00;101575.63;6113432;23;20053;-76
2023/01/04 03:16:54;;;;;;;4.60;4.20;;;;;;;7.73;100.00;101491.16;6105816;23;20018;-77
2023/01/04 03:19:50;;;;;;;4.00;3.80;;;;;;;8.19;100.00;101572.69;6105269;23;20029;-76
2023/01/04 03:36:29;;;;;;;3.85;3.75;;;;;;;8.59;100.00;101564.56;6111472;23;20032;-74
2023/01/04 03:48:33;;;;;;;4.10;3.90;;;;;;;8.67;100.00;101529.47;6117853;23;20369;-75
2023/01/04 03:51:14;;;;;;;4.60;3.95;;;;;;;8.72;100.00;101535.38;6088628;23;20022;-74
2023/01/04 03:53:58;;;;;;;4.30;4.10;;;;;;;8.85;100.00;101556.81;6084041;23;20077;-75
2023/01/04 03:56:28;;;;;;;4.20;4.00;;;;;;;7.67;100.00;101365.09;6106932;23;20017;-77
2023/01/04 03:58:54;;;;;;;4.20;4.00;;;;;;;8.65;100.00;101526.88;6115174;23;20078;-74
2023/01/04 04:01:24;;;;;;;3.92;3.78;;;;;;;8.89;100.00;101561.06;6097909;23;20698;-76
2023/01/04 04:09:21;;;;;;;4.38;3.97;;;;;;;9.06;100.00;101536.94;6114802;23;20637;-76
2023/01/04 04:11:48;;;;;;;4.60;4.30;;;;;;;9.04;100.00;101534.41;6100083;23;20366;-77
2023/01/04 04:14:14;;;;;;;3.85;3.75;;;;;;;8.03;100.00;101354.44;6113911;23;20084;-76
2023/01/04 04:16:41;;;;;;;4.00;3.80;;;;;;;9.05;100.00;101540.47;6117747;23;20045;-75
2023/01/04 04:19:07;;;;;;;4.30;4.10;;;;;;;9.02;100.00;101530.97;6118836;23;20072;-78
2023/01/04 04:21:35;;;;;;;4.13;3.92;;;;;;;9.21;100.00;101533.84;6108174;23;20092;-75
2023/01/04 04:24:01;;;;;;;4.00;3.80;;;;;;;8.58;100.00;101439.03;6080543;23;20812;-77
2023/01/04 04:26:28;;;;;;;4.10;3.90;;;;;;;9.19;100.00;101539.13;6118405;23;20017;-74
2023/01/04 04:28:54;;;;;;;4.07;3.88;;;;;;;8.53;100.00;101443.53;6115256;23;20063;-78
2023/01/04 04:31:21;;;;;;;4.07;3.88;;;;;;;8.96;100.00;101511.06;6084480;23;20020;-77
2023/01/04 04:33:47;;;;;;;4.00;3.80;;;;;;;9.10;100.00;101531.56;6087675;23;20022;-75
2023/01/04 04:36:13;;;;;;;4.30;4.10;;;;;;;8.59;100.00;101443.34;6119366;23;20043;-76
2023/01/04 04:38:40;;;;;;;4.00;3.80;;;;;;;7.87;100.00;101318.31;6082655;23;20014;-76
2023/01/04 04:43:57;;;;;;;4.25;4.05;;;;;;;9.23;100.00;101524.16;6070965;23;20026;-76
2023/01/04 04:46:24;;;;;;;3.80;3.70;;;;;;;7.76;100.00;101281.22;6115965;23;20028;-76
2023/01/04 04:48:50;;;;;;;3.97;3.80;;;;;;;9.22;100.00;101505.88;6117786;23;20515;-75
2023/01/04 04:51:17;;;;;;;4.05;3.85;;;;;;;9.21;100.00;101517.28;6098070;23;20025;-77
2023/01/04 04:53:43;;;;;;;4.10;3.90;;;;;;;8.11;100.00;101332.34;6117406;23;20491;-77
2023/01/04 04:56:10;;;;;;;4.30;4.10;;;;;;;9.19;100.00;101489.34;6116601;23;20026;-75
2023/01/04 04:58:37;;;;;;;4.30;4.10;;;;;;;9.03;100.00;101480.31;6111125;23;20041;-77
2023/01/04 05:01:04;;;;;;;4.40;4.20;;;;;;;7.86;100.00;101287.88;6086280;23;20021;-77
2023/01/04 05:03:30;;;;;;;3.90;3.70;;;;;;;8.88;100.00;101449.38;6118112;23;20041;-75
2023/01/04 05:05:57;;;;;;;3.80;3.70;;;;;;;8.78;100.00;101420.91;6073004;23;20073;-79
2023/01/04 05:08:43;;;;;;;4.20;4.00;;;;;;;8.63;100.00;101394.41;6119055;23;20033;-77
2023/01/04 05:11:12;;;;;;;4.20;4.00;;;;;;;9.40;100.00;101500.00;6109868;23;20063;-76
2023/01/04 05:13:38;;;;;;;4.00;3.80;;;;;;;8.73;100.00;101391.41;6116650;23;20116;-76
2023/01/04 05:16:06;;;;;;;4.20;4.00;;;;;;;8.77;100.00;101410.50;6119618;23;20014;-75
2023/01/04 05:18:32;;;;;;;3.95;3.80;;;;;;;8.92;100.00;101414.34;6112091;23;20014;-76
2023/01/04 05:20:59;;;;;;;4.13;3.92;;;;;;;9.35;100.00;101489.69;6113155;23;20682;-76
2023/01/04 05:23:28;;;;;;;5.55;3.80;;;;;;;9.03;100.00;101408.75;6072538;23;20014;-78
2023/01/04 05:26:00;;;;;;;4.10;3.90;;;;;;;9.35;100.00;101471.34;6116043;23;20014;-75
2023/01/04 05:28:27;;;;;;;3.92;3.80;;;;;;;8.76;100.00;101378.25;6081499;23;20523;-76
2023/01/04 05:30:54;;;;;;;4.05;3.85;;;;;;;9.50;100.00;101490.94;6118132;23;20475;-77
2023/01/04 05:33:26;;;;;;;4.10;3.90;;;;;;;9.38;100.00;101478.25;6118251;23;20259;-75
2023/01/04 05:35:55;;;;;;;4.10;3.90;;;;;;;8.97;100.00;101418.53;6123999;23;20092;-78
2023/01/04 05:38:22;;;;;;;4.30;4.10;;;;;;;9.56;100.00;101480.25;6119513;23;20092;-76
2023/01/04 05:40:49;;;;;;;4.00;3.80;;;;;;;9.06;100.00;101406.03;6094154;23;20076;-75
2023/01/04 05:43:17;;;;;;;4.10;3.90;;;;;;;9.59;100.00;101480.13;6089329;23;20681;-75
2023/01/04 05:45:48;;;;;;;4.07;3.88;;;;;;;8.62;100.00;101320.28;6114472;23;20017;-76
2023/01/04 05:48:14;;;;;;;4.22;4.03;;;;;;;8.09;100.00;101229.59;6106897;23;20082;-76
2023/01/04 05:50:41;;;;;;;3.97;3.80;;;;;;;8.45;100.00;101272.91;6092826;23;20113;-76
2023/01/04 05:53:07;;;;;;;4.30;4.10;;;;;;;9.19;100.00;101378.50;6105275;23;20734;-76
2023/01/04 05:55:34;;;;;;;4.10;3.90;;;;;;;9.57;100.00;101450.50;6093118;23;20762;-75
2023/01/04 05:58:00;;;;;;;4.15;3.95;;;;;;;9.37;100.00;101398.81;6114495;23;20021;-76
2023/01/04 06:00:26;;;;;;;4.18;3.97;;;;;;;9.03;100.00;101332.84;6114729;23;20033;-76
2023/01/04 06:02:55;;;;;;;4.15;3.95;;;;;;;9.56;100.00;101427.84;6085198;23;20119;-75
2023/01/04 06:05:23;;;;;;;4.07;3.88;;;;;;;9.09;100.00;101335.25;6117021;23;20149;-75
2023/01/04 06:07:50;;;;;;;4.28;4.07;;;;;;;9.28;100.00;101346.78;6088992;23;20044;-78
2023/01/04 06:10:18;;;;;;;4.10;3.90;;;;;;;9.89;100.00;101424.88;6094768;23;20026;-76
2023/01/04 06:12:47;;;;;;;4.22;4.03;;;;;;;9.03;100.00;101310.13;6109237;23;20068;-77
2023/01/04 06:15:14;;;;;;;4.20;4.00;;;;;;;9.66;100.00;101403.88;6087401;23;20539;-76
2023/01/04 06:17:40;;;;;;;4.18;3.97;;;;;;;9.70;100.00;101398.50;6115453;23;20654;-76
2023/01/04 06:20:08;;;;;;;4.40;4.20;;;;;;;9.24;100.00;101305.00;6088084;23;20042;-79
2023/01/04 06:22:39;;;;;;;4.07;3.88;;;;;;;9.94;100.00;101430.81;6117028;23;20051;-78
2023/01/04 06:25:07;;;;;;;4.30;4.10;;;;;;;9.73;100.00;101418.50;6117351;23;20074;-76
2023/01/04 06:27:36;;;;;;;4.18;3.97;;;;;;;9.90;100.00;101447.56;6118470;23;20085;-78
2023/01/04 06:30:03;;;;;;;4.20;4.00;;;;;;;9.64;100.00;101390.00;6112684;23;20029;-76
2023/01/04 06:32:30;;;;;;;4.18;3.97;;;;;;;9.28;100.00;101312.72;6097555;23;20028;-77
2023/01/04 06:34:56;;;;;;;4.20;4.00;;;;;;;9.44;100.00;101318.25;6087847;23;20021;-77
2023/01/04 06:37:23;;;;;;;4.20;4.00;;;;;;;9.38;100.00;101308.84;6120121;23;20111;-76
2023/01/04 06:39:49;;;;;;;4.13;3.92;;;;;;;9.44;100.00;101286.81;6114173;23;20013;-75
2023/01/04 06:45:07;;;;;;;4.18;3.97;;;;;;;10.01;100.00;101386.84;6122125;23;20009;-74
2023/01/04 06:47:38;;;;;;;4.10;3.90;;;;;;;9.74;100.00;101339.81;6120785;23;20021;-77
2023/01/04 06:50:15;;;;;;;4.10;3.90;;;;;;;10.11;100.00;101419.66;6096069;23;20005;-78
2023/01/04 06:52:44;;;;;;;;;;;;;;;10.28;100.00;101411.13;6116287;23;20095;-77
2023/01/04 06:55:24;;;;;;;3.78;3.67;;;;;;;10.23;100.00;101426.19;6116209;23;20347;-77
2023/01/04 06:58:04;;;;;;;4.35;4.15;;;;;;;9.98;100.00;101366.84;6049680;23;20366;-75
2023/01/04 07:00:30;;;;;;;4.40;4.20;;;;;;;10.17;100.00;101410.69;6109730;23;20486;-74
2023/01/04 07:02:57;;;;;;;3.97;3.78;;;;;;;10.23;100.00;101407.84;6112798;23;20021;-75
2023/01/04 07:05:41;;;;;;;4.32;4.13;;;;;;;10.20;100.00;101415.81;6082097;23;20030;-75
2023/01/04 07:08:08;;;;;;;4.40;4.20;;;;;;;9.31;100.00;101265.44;6087943;23;20614;-75
2023/01/04 07:10:35;;;;;;;4.28;4.07;;;;;;;9.51;100.00;101303.97;6083327;23;20163;-76
2023/01/04 07:13:01;;;;;;;4.30;4.10;;;;;;;10.19;100.00;101395.75;6089306;23;20033;-75
2023/01/04 07:15:28;;;;;;;4.10;3.90;;;;;;;10.22;100.00;101411.34;6112811;23;20021;-76
2023/01/04 07:18:06;;;;;;;4.97;4.63;;;;;;;10.22;100.00;101405.25;6106012;23;20120;-75
2023/01/04 07:20:32;;;;;;;4.50;4.30;;;;;;;9.69;100.00;101291.94;6092284;23;20029;-75
2023/01/04 07:22:59;;;;;;;4.10;3.90;;;;;;;10.29;100.00;101410.22;6115168;23;20030;-75
2023/01/04 07:25:25;;;;;;;4.15;3.95;;;;;;;10.16;100.00;101377.50;6101202;23;20100;-75
2023/01/04 07:27:52;;;;;;;4.20;4.00;;;;;;;10.20;100.00;101373.84;6109655;23;20026;-75
2023/01/04 07:30:21;;;;;;;4.30;4.10;;;;;;;10.00;100.00;101345.78;6110068;23;20037;-75
2023/01/04 07:32:49;;;;;;;4.40;4.20;;;;;;;10.19;100.00;101359.88;6106188;23;20029;-75
2023/01/04 07:35:16;;;;;;;4.50;4.30;;;;;;;10.02;100.00;101336.09;6104787;23;20066;-75
2023/01/04 07:37:42;;;;;;;4.47;4.28;;;;;;;10.42;100.00;101383.50;6105461;23;20086;-74
2023/01/04 07:40:10;;;;;;;4.28;4.07;;;;;;;9.85;100.00;101292.19;6079510;23;20484;-77
2023/01/04 07:42:37;;;;;;;4.35;4.15;;;;;;;9.44;100.00;101218.69;6090436;23;20017;-74
2023/01/04 07:45:05;;;;;;;3.95;3.78;;;;;;;10.40;100.00;101383.56;6084205;23;20014;-75
2023/01/04 07:47:31;;;;;;;5.22;4.10;;;;;;;10.41;100.00;101377.41;6062153;23;20049;-76
2023/01/04 07:49:59;;;;;;;4.30;4.10;;;;;;;10.40;100.00;101394.06;6109859;23;20212;-76
2023/01/04 07:52:26;;;;;;;4.10;3.90;;;;;;;10.42;100.00;101402.72;6085478;23;20022;-73
2023/01/04 07:54:52;;;;;;;4.40;4.20;;;;;;;10.45;100.00;101401.78;6109415;23;20025;-75
2023/01/04 07:57:19;;;;;;;4.25;4.05;;;;;;;10.42;100.00;101394.84;6099118;23;20032;-75
2023/01/04 07:59:45;;;;;;;4.18;3.97;;;;;;;10.23;100.00;101359.78;6092424;23;20017;-74
2023/01/04 08:02:12;;;;;;;4.50;4.30;;;;;;;10.49;100.00;101395.47;6109473;23;20146;-75
2023/01/04 08:04:39;;;;;;;4.60;4.40;;;;;;;10.36;100.00;101377.63;6110769;23;20490;-73
2023/01/04 08:07:05;;;;;;;4.43;4.22;;;;;;;10.38;100.00;101394.16;6111228;23;20093;-74
2023/01/04 08:09:32;;;;;;;4.20;4.00;;;;;;;9.99;100.00;101310.84;6090582;23;20096;-73
2023/01/04 08:11:58;;;;;;;4.43;4.03;;;;;;;10.19;100.00;101348.53;6114954;23;20025;-72
2023/01/04 08:14:25;;;;;;;4.20;4.00;;;;;;;10.10;100.00;101339.28;6110734;23;20095;-72
2023/01/04 08:16:51;;;;;;;4.22;4.03;;;;;;;10.46;100.00;101382.47;6086246;23;20451;-74
2023/01/04 08:19:19;;;;;;;4.10;3.90;;;;;;;10.51;100.00;101397.13;6123377;23;20033;-71
2023/01/04 08:21:47;;;;;;;5.47;5.13;;;;;;;10.12;100.00;101326.97;6095027;23;20262;-73
2023/01/04 08:24:16;;;;;;;4.40;4.20;;;;;;;10.06;100.00;101323.72;6115911;23;20032;-74
2023/01/04 08:26:43;;;;;;;4.40;4.20;;;;;;;9.95;100.00;101316.28;6090458;23;20523;-75
2023/01/04 08:29:11;;;;;;;4.75;4.40;;;;;;;10.51;100.00;101391.03;6112901;23;20025;-74
2023/01/04 08:31:38;;;;;;;4.40;4.20;;;;;;;10.07;100.00;101341.16;6059229;23;20284;-74
2023/01/04 08:34:07;;;;;;;4.43;4.22;;;;;;;10.50;100.00;101391.94;6115409;23;20427;-72
2023/01/04 08:36:42;;;;;;;4.20;4.00;;;;;;;10.58;100.00;101397.72;6071083;23;20413;-73
2023/01/04 08:39:09;;;;;;;4.40;4.20;;;;;;;10.61;100.00;101404.63;6084087;23;20821;-72
2023/01/04 08:41:49;;;;;;;4.20;4.00;;;;;;;10.51;100.00;101367.41;6109703;23;20037;-75
2023/01/04 08:44:36;;;;;;;4.43;4.22;;;;;;;10.05;100.00;101298.41;6110139;23;20042;-73
2023/01/04 08:47:03;;;;;;;4.10;3.90;;;;;;;10.64;100.00;101392.22;6117055;23;20025;-73
2023/01/04 08:49:29;;;;;;;4.13;3.92;;;;;;;10.26;100.00;101312.41;6088476;23;20018;-72
2023/01/04 08:51:56;;;;;;;4.18;3.97;;;;;;;10.43;100.00;101330.97;6101924;23;20021;-73
2023/01/04 08:54:22;;;;;;;4.55;4.35;;;;;;;10.42;100.00;101336.28;6093658;23;20021;-74
2023/01/04 08:56:49;;;;;;;6.85;4.18;;;;;;;10.69;100.00;101374.50;6060245;23;20033;-73
2023/01/04 08:59:17;;;;;;;4.40;4.20;;;;;;;10.27;100.00;101286.13;6114771;23;20089;-72
2023/01/04 09:01:44;;;;;;;4.10;3.90;;;;;;;10.49;100.00;101324.63;6115982;23;20116;-72
2023/01/04 09:04:11;;;;;;;4.53;4.32;;;;;;;10.81;100.00;101409.06;6115415;23;20014;-72
2023/01/04 09:06:39;;;;;;;4.30;4.10;;;;;;;10.48;100.00;101334.25;6067634;23;20398;-74
2023/01/04 09:09:05;;;;;;;4.40;4.20;;;;;;;10.91;100.00;101377.09;6088433;23;20032;-72
2023/01/04 09:11:32;;;;;;;4.47;4.18;;;;;;;10.97;100.00;101368.94;6086776;23;20108;-72
2023/01/04 09:13:59;;;;;;;4.38;4.18;;;;;;;11.06;100.00;101382.59;6089305;23;20658;-73
2023/01/04 09:16:33;;;;;;;4.88;4.68;;;;;;;10.90;100.00;101364.00;6098926;23;20414;-74
2023/01/04 09:19:00;;;;;;;4.55;4.35;;;;;;;10.67;100.00;101313.34;6062531;23;20046;-74
2023/01/04 09:21:27;;;;;;;4.90;4.60;;;;;;;10.97;100.00;101336.56;6080686;23;20025;-74
2023/01/04 09:23:56;;;;;;;4.60;4.40;;;;;;;11.00;100.00;101351.34;6114323;23;20510;-73
2023/01/04 09:26:23;;;;;;;4.80;4.60;;;;;;;11.17;100.00;101365.44;6113128;23;20241;-75
2023/01/04 09:28:51;;;;;;;4.43;4.07;;;;;;;11.23;100.00;101368.75;6111657;23;20119;-76
2023/01/04 09:31:20;;;;;;;4.70;4.40;;;;;;;10.54;100.00;101250.03;6072107;23;20376;-76
2023/01/04 09:33:47;;;;;;;5.25;4.85;;;;;;;11.28;100.00;101356.22;6106922;23;20018;-73
2023/01/04 09:36:33;;;;;;;5.50;4.97;;;;;;;11.00;100.00;101333.81;6108933;23;20030;-73
2023/01/04 09:38:59;;;;;;;4.40;4.20;;;;;;;11.09;100.00;101335.19;6085650;23;20030;-74
2023/01/04 09:41:29;;;;;;;8.73;6.22;;;;;;;11.32;100.00;101358.66;6109193;23;20025;-73
2023/01/04 09:43:55;;;;;;;7.50;5.32;;;;;;;11.34;100.00;101364.69;6111067;23;20053;-72
2023/01/04 09:46:50;;;;;;;5.50;4.93;;;;;;;11.37;100.00;101372.44;6118772;23;20009;-75
2023/01/04 09:49:27;;;;;;;4.88;4.57;;;;;;;11.33;100.00;101363.00;6106395;23;20020;-72
2023/01/04 09:52:10;;;;;;;4.40;4.20;;;;;;;11.35;100.00;101332.25;6107511;23;20025;-73
2023/01/04 09:54:51;;;;;;;4.43;4.22;;;;;;;11.44;100.00;101341.47;6086014;23;20140;-72
2023/01/04 09:57:27;;;;;;;4.35;4.15;;;;;;;11.42;100.00;101343.31;6121936;23;20184;-74
2023/01/04 10:00:04;;;;;;;;;;;;;;;11.45;100.00;101337.94;6115634;23;20052;-74
2023/01/04 10:02:57;;;;;;;4.40;4.20;;;;;;;11.20;100.00;101303.19;6086514;23;20225;-75
2023/01/04 10:05:27;;;;;;;7.68;4.57;;;;;;;11.25;100.00;101314.34;6108798;23;20008;-74
2023/01/04 10:07:54;;;;;;;4.80;4.55;;;;;;;11.41;100.00;101346.88;6095004;23;20100;-74
2023/01/04 10:10:45;;;;;;;4.50;4.30;;;;;;;10.82;100.00;101240.94;6111663;23;20008;-74
2023/01/04 10:13:25;;;;;;;5.55;5.35;;;;;;;11.35;100.00;101326.97;6085434;23;20201;-72
2023/01/04 10:16:05;;;;;;;4.57;4.38;;;;;;;11.34;100.00;101341.03;6114618;23;20073;-73
2023/01/04 10:18:44;;;;;;;4.40;4.20;;;;;;;11.14;100.00;101304.31;6105595;23;20362;-73
2023/01/04 10:21:39;;;;;;;4.30;4.10;;;;;;;11.03;100.00;101303.94;6113301;23;20016;-75
2023/01/04 10:24:14;;;;;;;4.22;4.03;;;;;;;11.27;100.00;101342.25;6111887;23;20529;-73
2023/01/04 10:26:45;;;;;;;5.97;4.28;;;;;;;11.01;100.00;101314.50;6111831;23;20032;-74
2023/01/04 10:29:37;;;;;;;4.20;4.00;;;;;;;11.21;100.00;101318.03;6111829;23;20021;-72
2023/01/04 10:32:19;;;;;;;4.35;4.15;;;;;;;11.17;100.00;101333.06;6095267;23;20024;-72
2023/01/04 10:34:46;;;;;;;4.60;4.30;;;;;;;11.24;100.00;101339.75;6109811;23;20008;-73
2023/01/04 10:37:25;;;;;;;4.35;4.15;;;;;;;11.24;100.00;101336.28;6109227;23;20021;-73
2023/01/04 10:39:56;;;;;;;4.20;4.00;;;;;;;11.17;100.00;101306.81;6112473;23;20499;-73
2023/01/04 10:42:33;;;;;;;4.60;4.40;;;;;;;11.22;100.00;101324.97;6113538;23;20029;-74
2023/01/04 10:45:30;;;;;;;4.38;4.10;;;;;;;11.25;100.00;101303.84;6102321;23;20484;-74
2023/01/04 10:48:18;;;;;;;4.55;4.35;;;;;;;11.25;100.00;101301.22;6086859;23;20046;-74
2023/01/04 10:50:56;;;;;;;4.90;4.60;;;;;;;11.25;100.00;101288.91;6110700;23;20533;-73
2023/01/04 10:53:37;;;;;;;4.30;4.10;;;;;;;11.09;100.00;101256.38;6095464;23;20017;-74
2023/01/04 10:56:22;;;;;;;4.45;4.25;;;;;;;11.28;100.00;101278.25;6115173;23;20102;-72
2023/01/04 10:59:02;;;;;;;4.53;4.32;;;;;;;11.26;100.00;101252.97;6098544;23;20073;-73
2023/01/04 11:01:34;;;;;;;4.60;4.40;;;;;;;11.37;100.00;101290.13;6097353;23;20020;-74
2023/01/04 11:04:12;;;;;;;4.40;4.20;;;;;;;11.42;100.00;101279.41;6109977;23;20045;-75
2023/01/04 11:07:04;;;;;;;4.32;4.13;;;;;;;11.43;100.00;101287.22;6111656;23;20310;-74
2023/01/04 11:10:00;;;;;;;4.45;4.22;;;;;;;11.25;100.00;101257.38;6101456;23;20393;-75
2023/01/04 11:12:26;;;;;;;4.80;4.60;;;;;;;11.41;100.00;101302.22;6103341;23;20025;-74
2023/01/04 11:14:53;;;;;;;4.32;4.13;;;;;;;10.13;100.00;101073.41;6117304;23;20019;-74
2023/01/04 11:17:22;;;;;;;17.98;17.08;;;;;;;8.98;100.00;100880.13;6035280;23;20775;-73
2023/01/04 11:19:49;;;;;;;4.50;4.30;;;;;;;11.40;100.00;101282.09;6008291;23;20030;-73
2023/01/04 11:22:26;;;;;;;4.45;4.25;;;;;;;11.44;100.00;101282.81;6105799;23;20041;-72
2023/01/04 11:25:00;;;;;;;4.30;4.05;;;;;;;11.45;100.00;101253.00;6083975;23;20629;-74
2023/01/04 11:27:58;;;;;;;4.60;4.40;;;;;;;11.53;100.00;101271.88;6106834;23;20702;-72
2023/01/04 11:30:34;;;;;;;4.47;4.28;;;;;;;11.56;100.00;101254.16;6066656;23;20387;-74
2023/01/04 11:33:09;;;;;;;4.30;4.10;;;;;;;11.53;100.00;101246.44;6119163;23;20037;-73
2023/01/04 11:35:38;;;;;;;4.43;4.22;;;;;;;11.62;100.00;101258.28;6088069;23;20033;-73
2023/01/04 11:38:14;;;;;;;4.60;4.40;;;;;;;11.63;100.00;101260.00;6087703;23;20488;-73
2023/01/04 11:40:52;;;;;;;4.80;4.50;;;;;;;11.67;100.00;101253.66;6113415;23;20177;-73
2023/01/04 11:43:21;;;;;;;4.88;4.68;;;;;;;11.36;100.00;101199.06;6114832;23;20063;-73
2023/01/04 11:46:04;;;;;;;4.30;4.10;;;;;;;11.32;100.00;101192.25;6092598;23;20043;-72
2023/01/04 11:48:40;;;;;;;4.60;4.40;;;;;;;11.77;100.00;101241.78;6090629;23;20017;-73
2023/01/04 11:51:15;;;;;;;4.38;4.18;;;;;;;11.80;100.00;101232.03;6083267;23;20088;-73
2023/01/04 11:53:42;;;;;;;4.60;4.40;;;;;;;11.50;100.00;101194.00;6093144;23;20037;-73
2023/01/04 11:56:20;;;;;;;4.63;4.43;;;;;;;11.81;100.00;101252.13;6084152;23;20030;-73
2023/01/04 11:59:12;;;;;;;4.20;4.00;;;;;;;11.62;100.00;101226.72;6118213;23;20104;-72
2023/01/04 12:01:46;;;;;;;4.43;4.22;;;;;;;11.82;100.00;101265.22;6085714;23;20347;-73
2023/01/04 12:04:20;;;;;;;4.40;4.20;;;;;;;11.03;100.00;101110.44;6077917;23;20395;-72
2023/01/04 12:06:55;;;;;;;4.45;4.25;;;;;;;11.45;100.00;101180.25;6116182;23;20654;-73
2023/01/04 12:09:22;;;;;;;4.30;4.10;;;;;;;11.42;100.00;101177.75;6120563;23;20053;-74
2023/01/04 12:11:51;;;;;;;4.35;4.15;;;;;;;11.77;100.00;101220.75;6106300;23;20022;-73
2023/01/04 12:14:23;;;;;;;4.30;4.10;;;;;;;11.86;100.00;101243.09;6114127;23;20075;-73
2023/01/04 12:16:53;;;;;;;;;;;;;;;11.91;100.00;101233.25;6115102;23;20048;-73
2023/01/04 12:19:20;;;;;;;4.78;4.45;;;;;;;11.86;100.00;101229.94;6115903;23;19906;-72
2023/01/04 12:21:51;;;;;;;4.45;4.25;;;;;;;11.88;100.00;101238.63;6087176;23;20041;-72
2023/01/04 12:24:25;;;;;;;4.45;4.25;;;;;;;11.57;100.00;101177.03;6098527;23;20025;-72
2023/01/04 12:26:52;;;;;;;4.43;4.22;;;;;;;11.72;100.00;101200.84;6117531;23;20070;-76
2023/01/04 12:29:21;;;;;;;4.43;4.22;;;;;;;11.93;100.00;101227.94;6108179;23;20579;-73
2023/01/04 12:32:06;;;;;;;4.90;4.70;;;;;;;11.86;100.00;101227.31;6112416;23;20453;-74